Time;durP1;ratioP1;P1;durP2;ratioP2;P2;SDS_P1;SDS_P2;PMS_P1;PMS_P2;Temp;Humidity;BMP_temperature;BMP_pressure;BME280_temperature;BME280_humidity;BME280_pressure;Samples;Min_cycle;Max_cycle;Signal;HPM_P1;HPM_P2
2021/05/25 00:02:02;;;;;;;1.35;0.82;;;;;;;20.46;52.10;102325.47;1770758;79;21045;-48
2021/05/25 00:04:29;;;;;;;1.82;0.90;;;;;;;20.49;51.98;102325.33;1769641;80;21069;-49
2021/05/25 00:06:56;;;;;;;1.57;1.20;;;;;;;20.49;51.94;102320.04;1781212;79;21560;-48
2021/05/25 00:09:23;;;;;;;1.15;1.05;;;;;;;20.49;51.86;102317.39;1765411;79;21561;-48
2021/05/25 00:11:51;;;;;;;1.77;0.95;;;;;;;20.47;51.98;102317.91;1772521;79;21037;-48
2021/05/25 00:14:20;;;;;;;2.62;1.02;;;;;;;20.43;52.07;102328.20;1777592;79;21044;-48
2021/05/25 00:16:50;;;;;;;1.85;1.00;;;;;;;20.39;52.27;102324.41;1784224;79;21539;-48
2021/05/25 00:19:19;;;;;;;1.20;1.00;;;;;;;20.35;52.33;102321.48;1775002;79;21559;-48
2021/05/25 00:21:45;;;;;;;2.08;1.20;;;;;;;20.30;52.49;102323.45;1781214;79;21053;-48
2021/05/25 00:24:12;;;;;;;1.95;1.02;;;;;;;20.27;52.56;102317.81;1778411;79;21071;-48
2021/05/25 00:26:39;;;;;;;1.12;1.02;;;;;;;20.28;52.60;102315.55;1783406;80;21029;-48
2021/05/25 00:29:06;;;;;;;1.15;1.07;;;;;;;20.29;52.49;102315.97;1775037;79;21056;-48
2021/05/25 00:31:32;;;;;;;1.35;1.10;;;;;;;20.28;52.36;102316.88;1777325;79;21020;-48
2021/05/25 00:33:59;;;;;;;2.45;1.30;;;;;;;20.27;52.40;102315.16;1770890;79;21527;-48
2021/05/25 00:36:27;;;;;;;1.70;1.22;;;;;;;20.25;52.33;102313.05;1766469;80;21115;-48
2021/05/25 00:38:54;;;;;;;1.50;0.85;;;;;;;20.25;52.36;102315.69;1784498;80;21079;-48
2021/05/25 00:41:21;;;;;;;1.45;1.10;;;;;;;20.24;52.25;102316.59;1773398;80;21083;-48
2021/05/25 00:43:48;;;;;;;1.35;1.25;;;;;;;20.22;52.24;102319.75;1781936;79;21072;-49
2021/05/25 00:46:15;;;;;;;1.40;1.00;;;;;;;20.22;52.24;102327.67;1766872;80;21047;-49
2021/05/25 00:48:43;;;;;;;2.90;0.98;;;;;;;20.22;52.30;102323.71;1712059;82;21087;-48
2021/05/25 00:51:10;;;;;;;3.55;1.00;;;;;;;20.23;52.37;102324.13;1736435;82;21045;-49
2021/05/25 00:53:37;;;;;;;1.30;0.90;;;;;;;20.23;52.37;102325.45;1784609;79;21045;-48
2021/05/25 00:56:04;;;;;;;1.30;0.98;;;;;;;20.23;52.29;102328.09;1770761;79;21020;-49
2021/05/25 00:58:34;;;;;;;1.30;1.20;;;;;;;20.21;52.21;102335.22;1775997;79;21060;-49
2021/05/25 01:01:02;;;;;;;2.08;1.35;;;;;;;20.19;52.14;102337.02;1775853;79;21566;-48
2021/05/25 01:03:29;;;;;;;2.33;1.75;;;;;;;20.15;51.93;102335.41;1781562;79;21068;-48
2021/05/25 01:05:56;;;;;;;0.95;0.93;;;;;;;20.13;51.81;102330.64;1764549;79;21531;-47
2021/05/25 01:08:23;;;;;;;1.55;1.20;;;;;;;20.10;51.77;102334.70;1773893;79;21092;-48
2021/05/25 01:11:07;;;;;;;2.90;1.10;;;;;;;20.06;51.88;102332.64;1769914;80;21644;-48
2021/05/25 01:13:42;;;;;;;2.55;1.00;;;;;;;20.03;52.21;102337.19;1778874;79;21068;-48
2021/05/25 01:16:05;;;;;;;1.42;1.07;;;;;;;19.97;52.56;102343.53;1766508;79;21611;-48
2021/05/25 01:18:32;;;;;;;1.82;1.40;;;;;;;19.94;52.67;102334.41;1773889;79;21016;-49
2021/05/25 01:21:01;;;;;;;1.67;1.27;;;;;;;19.91;52.70;102330.98;1773059;79;21063;-48
2021/05/25 01:23:30;;;;;;;1.42;1.12;;;;;;;19.87;52.78;102321.45;1782026;79;21065;-48
2021/05/25 01:25:56;;;;;;;1.42;1.10;;;;;;;19.78;52.85;102308.58;1770873;79;21085;-48
2021/05/25 01:28:24;;;;;;;1.47;1.30;;;;;;;19.70;53.10;102311.47;1779473;79;21016;-48
2021/05/25 01:30:53;;;;;;;2.77;1.15;;;;;;;19.65;53.29;102320.03;1801110;79;21554;-48
2021/05/25 01:33:22;;;;;;;4.08;1.20;;;;;;;19.64;53.42;102321.41;1779776;80;21019;-48
2021/05/25 01:35:49;;;;;;;1.37;1.10;;;;;;;19.63;53.53;102317.03;1761784;79;21087;-48
2021/05/25 01:38:15;;;;;;;0.90;0.90;;;;;;;19.60;53.70;102319.80;1763478;79;21131;-49
2021/05/25 01:40:43;;;;;;;2.22;1.10;;;;;;;19.61;53.89;102321.50;1768372;80;21045;-48
2021/05/25 01:43:10;;;;;;;2.10;1.05;;;;;;;19.63;54.04;102322.31;1778643;79;21061;-48
2021/05/25 01:45:39;;;;;;;1.70;0.95;;;;;;;19.64;54.10;102320.09;1782272;79;21623;-48
2021/05/25 01:48:08;;;;;;;5.75;1.07;;;;;;;19.67;54.10;102331.85;1774624;79;21583;-48
2021/05/25 01:50:36;;;;;;;1.30;1.20;;;;;;;19.70;54.19;102339.69;1768218;80;21518;-48
2021/05/25 01:53:17;;;;;;;1.25;1.10;;;;;;;19.72;54.10;102336.05;1782072;79;21064;-48
2021/05/25 01:55:49;;;;;;;1.95;1.20;;;;;;;19.73;54.05;102331.64;1754548;80;21674;-48
2021/05/25 01:58:22;;;;;;;2.87;1.40;;;;;;;19.72;53.83;102322.84;1755985;80;21649;-48
2021/05/25 02:01:00;;;;;;;1.20;1.10;;;;;;;19.65;53.86;102312.56;1734623;80;21582;-48
2021/05/25 02:03:27;;;;;;;2.02;0.82;;;;;;;19.60;54.04;102309.23;1754422;80;21044;-49
2021/05/25 02:05:55;;;;;;;2.83;1.10;;;;;;;19.54;54.25;102313.41;1748172;80;21124;-48
2021/05/25 02:08:22;;;;;;;1.47;0.75;;;;;;;19.51;54.47;102306.89;1769854;80;21035;-48
2021/05/25 02:10:53;;;;;;;1.45;0.72;;;;;;;19.49;54.68;102305.16;1737972;80;21043;-48
2021/05/25 02:13:24;;;;;;;5.45;0.85;;;;;;;19.45;54.87;102300.89;1747855;80;21072;-48
2021/05/25 02:15:54;;;;;;;;;;;;;;;19.41;55.17;102299.27;1756521;80;21163;-48
2021/05/25 02:18:23;;;;;;;1.22;0.82;;;;;;;19.40;55.13;102288.33;1691325;83;20205;-48
2021/05/25 02:20:52;;;;;;;0.70;0.70;;;;;;;19.39;54.37;102293.19;1688908;83;21591;-49
2021/05/25 02:23:19;;;;;;;2.17;0.70;;;;;;;19.41;54.18;102290.52;1688300;83;21086;-48
2021/05/25 02:25:46;;;;;;;1.30;1.02;;;;;;;19.42;54.14;102285.17;1678615;85;21064;-48
2021/05/25 02:28:13;;;;;;;1.10;0.70;;;;;;;19.46;54.07;102277.55;1681069;83;21121;-48
2021/05/25 02:30:41;;;;;;;0.93;0.68;;;;;;;19.48;54.10;102269.12;1689719;84;21119;-47
2021/05/25 02:33:12;;;;;;;2.33;1.15;;;;;;;19.53;54.18;102265.45;1687759;83;23180;-48
2021/05/25 02:35:39;;;;;;;0.90;0.70;;;;;;;19.56;53.92;102266.69;1703105;83;21095;-49
2021/05/25 02:38:07;;;;;;;0.85;0.78;;;;;;;19.60;53.89;102264.34;1684736;83;21045;-47
2021/05/25 02:40:34;;;;;;;0.50;0.47;;;;;;;19.63;53.36;102266.86;1668043;83;21598;-49
2021/05/25 02:43:02;;;;;;;1.27;0.90;;;;;;;19.64;53.09;102266.80;1695983;83;21191;-47
2021/05/25 02:45:28;;;;;;;1.12;1.02;;;;;;;19.69;52.91;102267.95;1682467;83;21088;-48
2021/05/25 02:47:55;;;;;;;0.82;0.70;;;;;;;19.75;52.70;102261.13;1682922;83;21067;-49
2021/05/25 02:50:22;;;;;;;0.50;0.50;;;;;;;19.81;52.58;102255.62;1685102;83;21107;-49
2021/05/25 02:52:51;;;;;;;0.95;0.60;;;;;;;19.84;52.49;102260.36;1663357;84;21113;-49
2021/05/25 02:55:20;;;;;;;1.47;0.80;;;;;;;19.87;52.47;102260.69;1666470;84;21083;-49
2021/05/25 02:57:48;;;;;;;1.12;0.60;;;;;;;19.91;52.41;102262.30;1657485;84;21132;-49
2021/05/25 03:00:23;;;;;;;1.50;0.75;;;;;;;19.93;52.18;102267.06;1658021;85;21621;-50
2021/05/25 03:02:50;;;;;;;0.60;0.50;;;;;;;19.95;52.11;102262.59;1661919;85;21091;-50
2021/05/25 03:05:19;;;;;;;1.77;0.70;;;;;;;19.97;52.08;102263.42;1659915;85;21076;-49
2021/05/25 03:07:46;;;;;;;0.98;0.88;;;;;;;19.98;51.97;102261.17;1652123;85;21131;-49
2021/05/25 03:10:16;;;;;;;3.17;0.82;;;;;;;20.01;51.65;102261.07;1651113;85;21090;-49
2021/05/25 03:12:44;;;;;;;3.02;1.30;;;;;;;19.98;51.69;102259.84;1658772;85;21064;-49
2021/05/25 03:15:14;;;;;;;2.25;0.80;;;;;;;19.98;51.80;102253.24;1662564;85;21028;-49
2021/05/25 03:17:43;;;;;;;0.55;0.50;;;;;;;20.02;51.94;102246.92;1641529;85;21204;-49
2021/05/25 03:20:12;;;;;;;0.60;0.60;;;;;;;20.06;51.43;102251.17;1636936;85;21615;-49
2021/05/25 03:22:38;;;;;;;2.52;0.60;;;;;;;20.06;50.76;102244.11;1691168;83;21075;-49
2021/05/25 03:25:07;;;;;;;1.00;0.60;;;;;;;20.08;49.91;102234.80;1706833;83;21023;-50
2021/05/25 03:27:35;;;;;;;2.95;0.70;;;;;;;20.05;49.55;102233.61;1665402;84;21131;-49
2021/05/25 03:30:09;;;;;;;0.72;0.70;;;;;;;20.01;49.28;102234.64;1632205;86;21071;-47
2021/05/25 03:32:36;;;;;;;3.70;0.80;;;;;;;19.97;49.61;102243.61;1639577;86;21112;-48
2021/05/25 03:35:06;;;;;;;0.70;0.60;;;;;;;19.96;49.90;102252.44;1649200;86;21175;-47
2021/05/25 03:37:34;;;;;;;0.60;0.60;;;;;;;19.95;50.04;102263.45;1706630;83;21575;-48
2021/05/25 03:40:05;;;;;;;0.88;0.60;;;;;;;19.90;50.05;102272.03;1697911;82;21102;-47
2021/05/25 03:42:31;;;;;;;0.65;0.60;;;;;;;19.75;50.50;102273.02;1696695;83;21103;-48
2021/05/25 03:45:00;;;;;;;3.85;0.50;;;;;;;19.77;50.62;102273.83;1668916;84;21063;-48
2021/05/25 03:47:26;;;;;;;1.20;0.70;;;;;;;19.95;50.37;102259.94;1628867;86;21060;-48
2021/05/25 03:49:53;;;;;;;1.17;0.70;;;;;;;20.02;49.93;102269.38;1662150;85;21098;-47
2021/05/25 03:52:20;;;;;;;0.88;0.68;;;;;;;20.07;49.91;102272.73;1694659;83;21260;-48
2021/05/25 03:54:54;;;;;;;0.75;0.50;;;;;;;20.14;49.84;102282.14;1702738;83;21120;-48
2021/05/25 03:59:55;;;;;;;1.02;0.45;;;;;;;20.35;49.74;102282.69;1730951;80;21078;-48
2021/05/25 04:02:22;;;;;;;2.05;0.82;;;;;;;20.50;49.24;102271.54;1743518;81;20999;-49
2021/05/25 04:04:50;;;;;;;2.15;0.50;;;;;;;20.63;48.86;102270.11;1748511;80;21629;-48
2021/05/25 04:07:16;;;;;;;0.68;0.50;;;;;;;20.69;48.52;102261.94;1741805;81;21035;-48
2021/05/25 04:09:43;;;;;;;1.05;0.60;;;;;;;20.71;48.31;102270.67;1752550;80;21108;-47
2021/05/25 04:12:10;;;;;;;2.05;0.60;;;;;;;20.70;48.43;102279.55;1730133;81;21136;-48
2021/05/25 04:14:38;;;;;;;2.05;0.60;;;;;;;20.69;48.77;102281.77;1739620;80;21055;-47
2021/05/25 04:17:06;;;;;;;2.20;0.50;;;;;;;20.68;48.70;102272.13;1740028;80;21039;-48
2021/05/25 04:19:33;;;;;;;0.78;0.50;;;;;;;20.66;48.58;102279.72;1741082;81;21056;-48
2021/05/25 04:22:00;;;;;;;2.85;1.05;;;;;;;20.60;47.65;102275.55;1767044;80;21057;-48
2021/05/25 04:24:26;;;;;;;2.22;1.00;;;;;;;20.55;47.53;102282.78;1772328;79;21057;-48
2021/05/25 04:26:53;;;;;;;0.90;0.60;;;;;;;20.51;47.83;102270.60;1783486;79;21052;-47
2021/05/25 04:29:20;;;;;;;0.70;0.70;;;;;;;20.49;47.94;102267.16;1779634;79;21091;-48
2021/05/25 04:31:47;;;;;;;1.57;1.00;;;;;;;20.43;47.94;102272.69;1762661;80;21532;-48
2021/05/25 04:34:14;;;;;;;1.22;0.70;;;;;;;20.35;47.95;102265.52;1773458;79;21035;-47
2021/05/25 04:36:40;;;;;;;0.93;0.70;;;;;;;20.26;48.22;102264.52;1794645;79;21091;-47
2021/05/25 04:39:07;;;;;;;0.60;0.60;;;;;;;20.19;48.58;102260.37;1786166;79;21013;-48
2021/05/25 04:41:34;;;;;;;2.05;0.60;;;;;;;20.13;48.73;102250.04;1783657;79;21103;-48
2021/05/25 04:44:01;;;;;;;2.25;0.78;;;;;;;20.09;48.89;102247.11;1775698;79;21516;-48
2021/05/25 04:46:29;;;;;;;2.27;0.88;;;;;;;20.07;49.23;102244.50;1781431;79;21030;-48
2021/05/25 04:48:58;;;;;;;1.02;0.75;;;;;;;20.07;49.04;102254.23;1767936;79;21647;-48
2021/05/25 04:51:25;;;;;;;3.05;1.17;;;;;;;20.04;48.98;102249.05;1777612;79;21068;-48
2021/05/25 04:53:53;;;;;;;1.25;0.98;;;;;;;20.03;49.05;102246.02;1767883;80;21054;-47
2021/05/25 04:56:20;;;;;;;2.10;0.72;;;;;;;20.03;49.03;102246.02;1768743;80;21559;-47
2021/05/25 04:58:47;;;;;;;0.98;0.80;;;;;;;20.01;49.06;102250.50;1776537;80;21055;-46
2021/05/25 05:01:15;;;;;;;3.33;0.85;;;;;;;20.01;49.34;102258.42;1763816;80;21040;-47
2021/05/25 05:03:41;;;;;;;1.07;0.72;;;;;;;20.06;49.70;102261.74;1772683;79;21095;-48
2021/05/25 05:06:08;;;;;;;1.30;0.98;;;;;;;20.13;49.71;102273.83;1776108;79;21079;-47
2021/05/25 05:08:43;;;;;;;1.92;1.00;;;;;;;20.15;49.75;102278.59;1773112;79;21035;-48
2021/05/25 05:11:05;;;;;;;1.65;1.05;;;;;;;20.23;49.94;102280.52;1763800;79;21033;-48
2021/05/25 05:13:34;;;;;;;9.60;1.27;;;;;;;20.36;49.96;102288.85;1784242;79;21008;-48
2021/05/25 05:16:00;;;;;;;2.58;1.32;;;;;;;20.50;49.82;102289.18;1781410;79;21028;-48
2021/05/25 05:18:28;;;;;;;2.20;1.02;;;;;;;20.65;49.36;102282.81;1765668;80;21008;-48
2021/05/25 05:20:54;;;;;;;1.95;1.10;;;;;;;20.84;48.91;102285.59;1779193;79;21069;-48
2021/05/25 05:23:21;;;;;;;1.62;1.20;;;;;;;21.02;48.55;102285.75;1765415;79;21051;-48
2021/05/25 05:25:48;;;;;;;3.10;1.15;;;;;;;21.24;48.31;102290.16;1771603;79;21024;-48
2021/05/25 05:28:15;;;;;;;1.42;1.05;;;;;;;21.43;47.98;102289.80;1772567;79;21044;-48
2021/05/25 05:30:42;;;;;;;1.35;1.07;;;;;;;21.62;47.31;102281.44;1776817;79;21072;-48
2021/05/25 05:33:09;;;;;;;2.15;1.40;;;;;;;21.82;46.86;102285.45;1774451;79;21799;-49
2021/05/25 05:35:36;;;;;;;5.70;1.87;;;;;;;22.01;46.62;102286.33;1767451;79;21611;-48
2021/05/25 05:38:03;;;;;;;2.15;1.40;;;;;;;22.23;46.30;102287.10;1772886;80;21049;-48
2021/05/25 05:40:30;;;;;;;3.08;1.37;;;;;;;22.46;45.90;102284.70;1778110;79;21560;-48
2021/05/25 05:42:56;;;;;;;2.20;1.30;;;;;;;22.68;45.28;102292.53;1773496;80;21063;-48
2021/05/25 05:45:24;;;;;;;1.50;1.40;;;;;;;22.89;44.64;102290.18;1776511;79;21024;-48
2021/05/25 05:47:52;;;;;;;1.50;1.25;;;;;;;23.12;44.19;102266.85;1778508;79;21044;-48
2021/05/25 05:50:19;;;;;;;2.67;1.30;;;;;;;23.35;43.84;102260.41;1767374;79;21552;-47
2021/05/25 05:52:46;;;;;;;3.00;1.40;;;;;;;23.60;43.63;102258.22;1772859;79;21025;-47
2021/05/25 05:55:15;;;;;;;3.17;1.47;;;;;;;23.88;43.23;102258.50;1778434;79;21574;-48
2021/05/25 05:57:42;;;;;;;2.42;1.57;;;;;;;24.11;42.79;102255.47;1785076;79;21048;-48
2021/05/25 06:00:12;;;;;;;3.25;1.70;;;;;;;24.21;42.13;102262.00;1776603;79;21155;-48
2021/05/25 06:02:41;;;;;;;3.17;1.15;;;;;;;24.21;41.82;102272.63;1756184;80;21556;-46
2021/05/25 06:05:09;;;;;;;3.95;1.47;;;;;;;24.19;41.93;102273.19;1777023;79;22637;-47
2021/05/25 06:07:37;;;;;;;4.45;1.60;;;;;;;24.14;41.99;102267.74;1774620;79;21564;-47
2021/05/25 06:10:06;;;;;;;1.92;1.50;;;;;;;24.12;41.90;102270.50;1766247;79;21044;-47
2021/05/25 06:12:33;;;;;;;2.05;1.42;;;;;;;24.10;41.85;102276.83;1759570;80;21130;-48
2021/05/25 06:15:00;;;;;;;1.85;1.10;;;;;;;24.11;41.94;102275.41;1758625;80;21039;-48
2021/05/25 06:17:28;;;;;;;2.83;1.40;;;;;;;24.12;42.13;102267.84;1761554;79;21592;-46
2021/05/25 06:19:55;;;;;;;2.33;1.32;;;;;;;24.19;42.38;102271.86;1777660;79;21579;-46
2021/05/25 06:22:22;;;;;;;2.87;1.40;;;;;;;24.28;41.91;102275.83;1790616;79;21044;-47
2021/05/25 06:24:50;;;;;;;2.17;1.57;;;;;;;24.33;41.73;102273.78;1752736;80;21048;-48
2021/05/25 06:27:17;;;;;;;1.47;1.35;;;;;;;24.33;41.68;102279.56;1769947;79;21084;-45
2021/05/25 06:29:44;;;;;;;2.65;1.90;;;;;;;24.30;41.95;102285.08;1760180;79;21047;-48
2021/05/25 06:32:12;;;;;;;3.22;1.60;;;;;;;24.30;42.05;102291.73;1767359;79;21065;-48
2021/05/25 06:34:38;;;;;;;2.37;1.62;;;;;;;24.22;42.17;102282.34;1697489;81;21080;-46
2021/05/25 06:37:05;;;;;;;1.55;1.45;;;;;;;24.12;42.33;102281.59;1764054;79;21067;-50
2021/05/25 06:39:32;;;;;;;2.55;1.92;;;;;;;23.95;42.46;102279.81;1782840;79;21623;-50
2021/05/25 06:41:59;;;;;;;2.25;1.62;;;;;;;23.80;42.85;102289.91;1767134;79;21052;-49
2021/05/25 06:44:30;;;;;;;2.95;1.82;;;;;;;23.71;43.44;102293.53;1777666;80;21622;-46
2021/05/25 06:46:55;;;;;;;3.12;2.10;;;;;;;23.62;43.71;102277.59;1770958;79;21067;-48
2021/05/25 06:49:23;;;;;;;3.08;2.33;;;;;;;23.57;44.19;102276.99;1780220;78;21028;-46
2021/05/25 06:51:50;;;;;;;4.00;2.35;;;;;;;23.58;44.10;102288.45;1760853;79;21559;-49
2021/05/25 06:54:17;;;;;;;3.02;2.70;;;;;;;23.57;43.83;102283.63;1783882;79;21119;-46
2021/05/25 06:56:44;;;;;;;3.33;2.55;;;;;;;23.50;43.88;102272.92;1722133;82;21103;-48
2021/05/25 06:59:11;;;;;;;4.70;2.52;;;;;;;23.47;44.06;102281.06;1735234;81;21564;-48
2021/05/25 07:01:38;;;;;;;3.42;2.55;;;;;;;23.48;44.08;102285.42;1760009;80;21095;-48
2021/05/25 07:04:05;;;;;;;3.50;3.00;;;;;;;23.52;43.99;102277.68;1767591;79;21024;-49
2021/05/25 07:06:32;;;;;;;3.90;2.58;;;;;;;23.60;44.01;102284.78;1776556;79;21072;-50
2021/05/25 07:08:59;;;;;;;3.90;2.52;;;;;;;23.72;43.99;102283.31;1764726;80;21606;-49
2021/05/25 07:11:26;;;;;;;2.60;2.27;;;;;;;23.87;43.73;102279.82;1697165;83;21061;-49
2021/05/25 07:13:52;;;;;;;4.12;2.70;;;;;;;23.96;43.32;102276.23;1767121;79;21040;-47
2021/05/25 07:16:19;;;;;;;3.33;2.42;;;;;;;24.06;43.23;102280.14;1778673;79;21574;-49
2021/05/25 07:18:46;;;;;;;5.30;2.35;;;;;;;24.20;43.48;102284.23;1767713;79;21033;-46
2021/05/25 07:21:14;;;;;;;4.17;2.20;;;;;;;24.37;43.05;102282.45;1756390;80;21080;-46
2021/05/25 07:23:41;;;;;;;3.58;2.50;;;;;;;24.47;42.93;102284.52;1775533;79;21021;-48
2021/05/25 07:26:07;;;;;;;3.67;2.15;;;;;;;24.46;42.41;102277.47;1780131;79;21041;-50
2021/05/25 07:28:35;;;;;;;4.25;2.45;;;;;;;24.38;42.32;102275.70;1772574;79;21068;-46
2021/05/25 07:31:02;;;;;;;3.45;2.10;;;;;;;24.23;42.59;102281.39;1772690;80;21567;-46
2021/05/25 07:33:29;;;;;;;6.75;2.87;;;;;;;24.14;42.71;102281.05;1774599;79;21096;-48
2021/05/25 07:35:56;;;;;;;2.85;2.55;;;;;;;24.06;43.00;102278.81;1732930;82;21068;-47
2021/05/25 07:38:23;;;;;;;3.62;2.35;;;;;;;24.01;43.33;102276.81;1731444;81;21084;-51
2021/05/25 07:40:51;;;;;;;2.67;2.47;;;;;;;23.97;43.47;102269.95;1796632;79;21044;-49
2021/05/25 07:43:18;;;;;;;6.97;2.70;;;;;;;23.92;43.43;102262.70;1736775;82;21081;-46
2021/05/25 07:45:46;;;;;;;4.60;2.47;;;;;;;23.86;43.99;102263.04;1728588;81;21068;-48
2021/05/25 07:48:14;;;;;;;5.22;2.67;;;;;;;23.84;44.17;102273.36;1747832;80;21036;-47
2021/05/25 07:50:42;;;;;;;3.20;2.25;;;;;;;23.83;43.85;102284.45;1752587;81;21159;-47
2021/05/25 07:53:09;;;;;;;3.65;2.17;;;;;;;23.83;44.01;102292.89;1742142;81;21135;-46
2021/05/25 07:55:36;;;;;;;3.33;2.20;;;;;;;23.84;43.99;102296.82;1741948;80;21073;-49
2021/05/25 07:58:03;;;;;;;2.77;2.30;;;;;;;23.85;44.08;102293.20;1762459;80;21087;-47
2021/05/25 08:00:32;;;;;;;6.25;2.20;;;;;;;23.87;44.18;102300.63;1773857;80;21047;-49
2021/05/25 08:02:59;;;;;;;2.25;2.05;;;;;;;23.89;44.26;102307.19;1765032;80;21044;-48
2021/05/25 08:05:28;;;;;;;3.40;2.30;;;;;;;23.88;44.27;102297.05;1769018;79;21068;-46
2021/05/25 08:07:55;;;;;;;4.47;2.05;;;;;;;23.87;44.28;102295.77;1791615;79;21571;-49
2021/05/25 08:10:22;;;;;;;2.77;2.20;;;;;;;23.87;44.65;102293.98;1774129;79;21023;-49
2021/05/25 08:12:50;;;;;;;3.62;2.25;;;;;;;23.84;44.13;102294.16;1760708;80;21087;-51
2021/05/25 08:15:19;;;;;;;2.55;2.10;;;;;;;23.74;44.20;102292.89;1729126;81;21541;-47
2021/05/25 08:20:18;;;;;;;3.77;2.15;;;;;;;23.63;44.87;102299.72;1697569;82;21065;-46
2021/05/25 08:22:52;;;;;;;2.20;2.00;;;;;;;23.62;45.18;102306.83;1787742;79;21088;-47
2021/05/25 08:25:23;;;;;;;2.92;2.10;;;;;;;23.63;45.15;102301.92;1734786;82;21091;-48
2021/05/25 08:27:50;;;;;;;2.33;2.12;;;;;;;23.67;44.63;102288.86;1705199;82;21048;-50
2021/05/25 08:30:21;;;;;;;3.00;1.95;;;;;;;23.68;44.89;102289.23;1719909;82;21556;-48
2021/05/25 08:32:50;;;;;;;2.67;2.30;;;;;;;23.67;44.86;102288.86;1720469;82;21563;-48
2021/05/25 08:35:19;;;;;;;2.40;2.15;;;;;;;23.71;45.33;102297.52;1787169;79;21028;-48
2021/05/25 08:37:48;;;;;;;2.42;1.92;;;;;;;23.72;44.82;102292.61;1779989;79;21635;-49
2021/05/25 08:40:17;;;;;;;3.00;2.50;;;;;;;23.72;45.35;102295.27;1722870;82;21041;-49
2021/05/25 08:42:47;;;;;;;2.92;2.10;;;;;;;23.73;44.91;102298.30;1711375;82;21032;-50
2021/05/25 08:45:15;;;;;;;2.37;2.17;;;;;;;23.71;44.76;102292.20;1730235;81;21102;-47
2021/05/25 08:47:44;;;;;;;2.87;2.45;;;;;;;23.67;45.24;102290.19;1784043;79;21028;-48
2021/05/25 08:50:14;;;;;;;4.83;2.40;;;;;;;23.61;45.14;102291.84;1779460;79;21025;-50
2021/05/25 08:52:41;;;;;;;3.95;2.50;;;;;;;23.54;45.21;102289.09;1767139;79;21040;-51
2021/05/25 08:55:10;;;;;;;2.60;2.40;;;;;;;23.45;45.16;102290.91;1782397;79;21025;-49
2021/05/25 08:57:37;;;;;;;2.80;2.50;;;;;;;23.37;45.62;102293.06;1785245;79;20985;-48
2021/05/25 09:00:07;;;;;;;2.70;2.50;;;;;;;23.30;45.98;102286.33;1775907;79;21099;-51
2021/05/25 09:02:34;;;;;;;3.33;2.70;;;;;;;23.23;45.85;102276.94;1774449;79;21569;-49
2021/05/25 09:05:16;;;;;;;2.40;2.20;;;;;;;23.17;46.15;102270.15;1787444;79;20996;-47
2021/05/25 09:07:47;;;;;;;3.20;2.67;;;;;;;23.11;46.46;102281.08;1770209;79;21039;-46
2021/05/25 09:10:38;;;;;;;2.60;2.30;;;;;;;23.09;46.66;102274.98;1772335;79;21060;-46
2021/05/25 09:13:22;;;;;;;2.42;2.22;;;;;;;23.05;46.53;102272.55;1767884;79;21111;-49
2021/05/25 09:15:54;;;;;;;2.98;2.40;;;;;;;22.97;46.65;102269.42;1784896;79;21063;-47
2021/05/25 09:18:29;;;;;;;2.50;2.30;;;;;;;22.95;46.93;102264.66;1781746;79;21040;-53
2021/05/25 09:21:05;;;;;;;3.10;2.20;;;;;;;22.95;46.95;102268.64;1787182;79;21071;-49
2021/05/25 09:23:38;;;;;;;2.50;2.30;;;;;;;22.97;46.90;102277.39;1722409;81;21078;-47
2021/05/25 09:26:10;;;;;;;2.22;2.02;;;;;;;22.99;46.68;102272.86;1735514;81;21047;-49
2021/05/25 09:28:58;;;;;;;2.42;2.22;;;;;;;22.98;46.85;102273.81;1738873;80;21590;-51
2021/05/25 09:31:45;;;;;;;4.85;2.50;;;;;;;22.97;46.98;102272.08;1727297;81;21551;-47
2021/05/25 09:34:20;;;;;;;2.55;2.30;;;;;;;22.98;46.97;102260.05;1743535;80;21103;-51
2021/05/25 09:39:49;;;;;;;6.08;3.05;;;;;;;23.03;47.07;102259.83;1692265;84;21679;-46
2021/05/25 09:42:19;;;;;;;3.35;2.12;;;;;;;23.01;47.15;102261.23;1674607;84;21083;-46
2021/05/25 09:45:11;;;;;;;2.83;2.35;;;;;;;22.99;47.28;102264.44;1690643;84;21099;-52
2021/05/25 09:47:43;;;;;;;3.40;2.25;;;;;;;23.03;47.40;102259.83;1666063;85;21092;-49
2021/05/25 09:50:13;;;;;;;2.70;2.50;;;;;;;23.05;46.93;102264.59;1671715;85;21068;-48
2021/05/25 09:53:02;;;;;;;3.08;2.77;;;;;;;23.06;47.01;102254.38;1665823;85;21140;-48
2021/05/25 09:55:29;;;;;;;3.08;2.40;;;;;;;23.07;46.79;102249.44;1645216;86;21095;-48
2021/05/25 09:57:58;;;;;;;4.30;2.08;;;;;;;23.06;46.76;102245.08;1644170;86;21051;-49
2021/05/25 10:00:33;;;;;;;2.60;2.40;;;;;;;23.08;47.23;102235.25;1631280;86;21103;-50
2021/05/25 10:03:14;;;;;;;7.17;2.42;;;;;;;23.11;46.67;102237.73;1627943;86;21088;-50
2021/05/25 10:05:50;;;;;;;3.00;2.10;;;;;;;23.13;46.52;102235.86;1597118;89;21083;-50
2021/05/25 10:08:23;;;;;;;2.40;2.15;;;;;;;23.15;46.66;102231.33;1556988;91;21152;-47
2021/05/25 10:10:54;;;;;;;3.98;2.52;;;;;;;23.21;46.54;102218.60;1560131;91;21111;-47
2021/05/25 10:13:23;;;;;;;3.65;2.50;;;;;;;23.26;46.32;102213.06;1561649;91;21102;-47
2021/05/25 10:15:53;;;;;;;4.17;2.10;;;;;;;23.25;46.68;102208.67;1559047;90;21102;-48
2021/05/25 10:18:37;;;;;;;2.92;2.60;;;;;;;23.28;46.56;102212.51;1564009;90;21673;-49
2021/05/25 10:21:07;;;;;;;2.80;2.50;;;;;;;23.30;46.52;102201.34;1577661;89;21163;-49
2021/05/25 10:23:35;;;;;;;2.70;2.30;;;;;;;23.37;46.69;102193.45;1572465;89;21711;-48
2021/05/25 10:26:06;;;;;;;2.90;2.60;;;;;;;23.44;46.72;102190.88;1570676;89;21147;-48
2021/05/25 10:28:33;;;;;;;1.92;1.82;;;;;;;23.51;46.64;102197.60;1527685;92;21100;-48
2021/05/25 10:31:02;;;;;;;2.90;2.52;;;;;;;23.60;46.17;102210.38;1538470;92;21109;-47
2021/05/25 10:33:29;;;;;;;4.37;2.98;;;;;;;23.63;45.89;102202.27;1527108;91;21176;-48
2021/05/25 10:36:02;;;;;;;2.50;2.30;;;;;;;23.64;45.68;102193.33;1525144;92;21121;-49
2021/05/25 10:38:34;;;;;;;3.60;2.42;;;;;;;23.65;45.65;102197.72;1440768;98;21217;-47
2021/05/25 10:41:06;;;;;;;2.90;2.35;;;;;;;23.67;45.58;102195.84;1442666;98;21198;-48
2021/05/25 10:43:39;;;;;;;3.85;2.30;;;;;;;23.68;45.57;102181.59;1445616;95;21174;-47
2021/05/25 10:46:15;;;;;;;2.72;2.52;;;;;;;23.66;45.54;102187.95;1475402;95;21154;-47
2021/05/25 10:49:17;;;;;;;2.50;2.30;;;;;;;23.63;45.68;102191.62;1465166;95;21678;-49
2021/05/25 10:51:55;;;;;;;2.55;2.17;;;;;;;23.60;45.60;102183.81;1469386;96;21191;-50
2021/05/25 10:54:35;;;;;;;2.55;2.33;;;;;;;23.54;45.70;102178.82;1476864;95;21239;-45
2021/05/25 10:57:06;;;;;;;2.77;2.40;;;;;;;23.49;45.77;102176.90;1481080;94;21136;-52
2021/05/25 11:00:04;;;;;;;2.80;2.30;;;;;;;23.40;46.03;102166.74;1474756;95;21634;-50
2021/05/25 11:02:57;;;;;;;2.90;2.70;;;;;;;23.39;46.23;102176.96;1509508;91;21134;-49
2021/05/25 11:05:37;;;;;;;2.70;2.35;;;;;;;23.39;46.40;102176.96;1546639;90;23105;-48
2021/05/25 11:08:19;;;;;;;3.90;2.52;;;;;;;23.42;46.47;102163.53;1543339;91;21108;-48
2021/05/25 11:10:53;;;;;;;2.60;2.40;;;;;;;23.44;46.42;102162.98;1553191;90;21284;-47
2021/05/25 11:13:21;;;;;;;2.45;2.25;;;;;;;23.47;46.23;102161.97;1551315;90;21291;-47
2021/05/25 11:16:22;;;;;;;3.25;2.65;;;;;;;23.50;46.35;102163.98;1556663;90;21129;-47
2021/05/25 11:19:31;;;;;;;2.90;2.15;;;;;;;23.56;46.43;102161.00;1537989;92;21156;-48
2021/05/25 11:24:43;;;;;;;5.03;3.05;;;;;;;23.71;46.39;102160.19;1542797;91;21162;-47
2021/05/25 11:27:33;;;;;;;2.25;2.10;;;;;;;23.77;46.38;102157.19;1514348;93;21118;-46
2021/05/25 11:30:11;;;;;;;2.55;2.35;;;;;;;23.86;46.11;102155.83;1516568;93;21088;-49
2021/05/25 11:32:45;;;;;;;4.55;2.52;;;;;;;23.91;45.82;102147.98;1491053;94;21219;-47
2021/05/25 11:35:15;;;;;;;3.35;2.40;;;;;;;23.97;45.66;102150.30;1494993;93;21158;-48
2021/05/25 11:37:44;;;;;;;3.25;2.50;;;;;;;24.00;45.82;102154.13;1501673;92;21140;-49
2021/05/25 11:40:17;;;;;;;2.52;2.25;;;;;;;24.00;45.61;102150.14;1528947;92;21139;-48
2021/05/25 11:42:45;;;;;;;3.33;3.02;;;;;;;24.02;45.50;102149.59;1524723;93;21114;-48
2021/05/25 11:45:13;;;;;;;2.33;2.15;;;;;;;24.05;45.62;102164.55;1516016;94;21138;-46
2021/05/25 11:47:40;;;;;;;2.85;2.55;;;;;;;24.04;45.60;102163.69;1519807;93;21101;-49